createdAt,value
2023-01-04T00:01:24.998Z,22.25
2023-01-04T00:03:56.641Z,15.93
2023-01-04T00:06:28.067Z,20.10
2023-01-04T00:08:59.278Z,17.40
2023-01-04T00:11:30.640Z,18.77
2023-01-04T00:14:01.805Z,19.52
2023-01-04T00:16:32.958Z,20.95
2023-01-04T00:19:04.619Z,17.40
2023-01-04T00:24:06.688Z,12.82
2023-01-04T00:26:37.856Z,16.00
2023-01-04T00:29:11.875Z,14.48
2023-01-04T00:31:42.989Z,15.68
2023-01-04T00:34:17.843Z,14.82
2023-01-04T00:36:49.581Z,16.05
2023-01-04T00:39:20.933Z,14.60
2023-01-04T00:41:59.741Z,13.93
2023-01-04T00:44:31.935Z,14.63
2023-01-04T00:47:04.474Z,13.68
2023-01-04T00:49:35.697Z,12.10
2023-01-04T00:52:08.114Z,21.17
2023-01-04T00:54:39.241Z,18.02
2023-01-04T00:57:10.522Z,23.13
2023-01-04T00:59:41.922Z,21.25
2023-01-04T01:02:13.396Z,18.63
2023-01-04T01:04:44.724Z,22.42
2023-01-04T01:07:15.826Z,20.08
2023-01-04T01:09:47.233Z,19.48
2023-01-04T01:12:18.373Z,22.98
2023-01-04T01:14:49.932Z,20.50
2023-01-04T01:17:21.249Z,18.35
2023-01-04T01:19:52.433Z,16.38
2023-01-04T01:22:23.405Z,17.20
2023-01-04T01:24:54.533Z,16.30
2023-01-04T01:27:25.857Z,21.15
2023-01-04T01:29:57.193Z,17.33
2023-01-04T01:32:28.169Z,18.05
2023-01-04T01:34:59.487Z,19.88
2023-01-04T01:40:01.472Z,19.35
2023-01-04T01:45:12.431Z,22.40
2023-01-04T01:47:46.747Z,20.92
2023-01-04T01:50:41.053Z,23.48
2023-01-04T01:53:14.051Z,19.80
2023-01-04T01:55:46.384Z,17.67
2023-01-04T01:58:24.580Z,14.95
2023-01-04T02:00:56.142Z,13.85
2023-01-04T02:03:34.550Z,17.55
2023-01-04T02:06:09.509Z,20.02
2023-01-04T02:08:42.401Z,13.40
2023-01-04T02:11:13.714Z,15.05
2023-01-04T02:14:04.097Z,18.00
2023-01-04T02:16:35.218Z,19.63
2023-01-04T02:19:33.839Z,18.10
2023-01-04T02:22:53.348Z,19.05
2023-01-04T02:25:30.341Z,17.75
2023-01-04T02:28:25.424Z,20.20
2023-01-04T02:31:14.673Z,22.90
2023-01-04T02:34:12.217Z,19.60
2023-01-04T02:37:01.657Z,20.75
2023-01-04T02:40:06.472Z,18.85
2023-01-04T02:43:17.586Z,21.02
2023-01-04T02:46:18.792Z,18.85
2023-01-04T02:49:08.854Z,19.77
2023-01-04T02:51:40.669Z,21.40
2023-01-04T02:54:17.766Z,15.60
2023-01-04T02:57:02.706Z,12.93
2023-01-04T02:59:41.568Z,14.02
2023-01-04T03:02:45.980Z,10.70
2023-01-04T03:05:41.480Z,13.95
2023-01-04T03:08:25.472Z,16.35
2023-01-04T03:11:28.482Z,14.63
2023-01-04T03:14:31.400Z,14.65
2023-01-04T03:17:12.034Z,13.35
2023-01-04T03:19:53.766Z,13.98
2023-01-04T03:23:02.738Z,13.23
2023-01-04T03:26:04.703Z,16.15
2023-01-04T03:28:56.584Z,19.90
2023-01-04T03:34:39.855Z,17.45
2023-01-04T03:37:20.968Z,15.40
2023-01-04T03:40:59.220Z,13.80
2023-01-04T03:44:15.983Z,19.08
2023-01-04T03:47:11.573Z,16.95
2023-01-04T03:49:50.173Z,18.30
2023-01-04T03:52:21.931Z,14.20
2023-01-04T03:54:53.067Z,18.73
2023-01-04T03:57:24.746Z,17.80
2023-01-04T04:02:32.625Z,16.25
2023-01-04T04:05:21.801Z,15.55
2023-01-04T04:08:11.269Z,19.80
2023-01-04T04:10:42.708Z,17.27
2023-01-04T04:13:13.531Z,18.85
2023-01-04T04:15:44.517Z,15.80
2023-01-04T04:18:15.922Z,18.17
2023-01-04T04:20:47.042Z,16.98
2023-01-04T04:23:18.205Z,17.77
2023-01-04T04:25:49.662Z,17.08
2023-01-04T04:28:20.791Z,15.32
2023-01-04T04:30:54.885Z,17.95
2023-01-04T04:33:26.016Z,15.48
2023-01-04T04:35:57.832Z,14.68
2023-01-04T04:38:28.815Z,14.13
2023-01-04T04:41:18.583Z,14.85
2023-01-04T04:43:49.760Z,14.32
2023-01-04T04:46:20.816Z,15.85
2023-01-04T04:48:52.049Z,18.27
2023-01-04T04:51:23.256Z,19.60
2023-01-04T04:53:54.296Z,15.38
2023-01-04T04:56:25.789Z,17.02
2023-01-04T04:58:56.813Z,16.20
2023-01-04T05:01:28.154Z,15.15
2023-01-04T05:03:59.492Z,14.38
2023-01-04T05:06:30.759Z,12.70
2023-01-04T05:09:01.929Z,20.05
2023-01-04T05:11:51.103Z,15.02
2023-01-04T05:14:23.988Z,18.73
2023-01-04T05:16:55.729Z,16.42
2023-01-04T05:19:26.793Z,16.88
2023-01-04T05:21:57.991Z,19.48
2023-01-04T05:24:29.140Z,16.95
2023-01-04T05:27:00.301Z,18.30
2023-01-04T05:29:49.523Z,19.38
2023-01-04T05:32:20.589Z,16.90
2023-01-04T05:34:51.584Z,16.58
2023-01-04T05:37:22.474Z,14.70
2023-01-04T05:39:53.632Z,17.38
2023-01-04T05:42:29.375Z,14.48
2023-01-04T05:45:01.322Z,13.48
2023-01-04T05:47:33.698Z,11.57
2023-01-04T05:50:05.561Z,13.05
2023-01-04T05:52:36.981Z,16.65
2023-01-04T05:55:08.436Z,19.88
2023-01-04T06:00:12.671Z,12.35
2023-01-04T06:02:45.180Z,12.30
2023-01-04T06:05:16.629Z,16.20
2023-01-04T06:10:18.599Z,15.80
2023-01-04T06:15:20.703Z,13.15
2023-01-04T06:17:51.994Z,14.85
2023-01-04T06:20:23.526Z,19.88
2023-01-04T06:22:54.803Z,21.13
2023-01-04T06:25:25.819Z,17.60
2023-01-04T06:27:56.947Z,18.75
2023-01-04T06:30:30.478Z,12.73
2023-01-04T06:33:01.803Z,17.70
2023-01-04T06:35:33.158Z,15.35
2023-01-04T06:38:04.444Z,19.27
2023-01-04T06:40:35.696Z,13.45
2023-01-04T06:43:07.296Z,11.40
2023-01-04T06:45:39.205Z,15.02
2023-01-04T06:48:10.665Z,14.60
2023-01-04T06:50:49.498Z,12.00
2023-01-04T06:53:20.969Z,13.30
2023-01-04T06:55:52.032Z,13.48
2023-01-04T06:58:23.082Z,16.65
2023-01-04T07:00:55.042Z,16.67
2023-01-04T07:03:26.265Z,12.82
2023-01-04T07:05:57.632Z,14.05
2023-01-04T07:08:28.841Z,14.13
2023-01-04T07:10:59.837Z,10.25
2023-01-04T07:13:31.217Z,12.93
2023-01-04T07:16:02.751Z,15.20
2023-01-04T07:18:34.155Z,12.63
2023-01-04T07:21:05.289Z,11.90
2023-01-04T07:23:36.201Z,16.95
2023-01-04T07:26:07.269Z,13.80
2023-01-04T07:28:56.470Z,12.85
2023-01-04T07:31:27.698Z,13.93
2023-01-04T07:33:58.967Z,16.77
2023-01-04T07:36:29.999Z,12.07
2023-01-04T07:39:05.105Z,17.80
2023-01-04T07:41:36.044Z,21.55
2023-01-04T07:44:08.439Z,14.27
2023-01-04T07:46:40.541Z,17.40
2023-01-04T07:49:18.020Z,16.23
2023-01-04T07:51:50.142Z,15.82
2023-01-04T07:54:22.122Z,13.15
2023-01-04T07:56:53.739Z,15.63
2023-01-04T07:59:25.317Z,12.82
2023-01-04T08:01:57.275Z,11.73
2023-01-04T08:04:34.414Z,14.20
2023-01-04T08:07:06.518Z,16.33
2023-01-04T08:12:08.773Z,9.50
2023-01-04T08:14:39.933Z,14.77
2023-01-04T08:17:12.363Z,12.73
2023-01-04T08:19:43.511Z,10.57
2023-01-04T08:22:15.415Z,12.05
2023-01-04T08:24:46.562Z,10.15
2023-01-04T08:27:17.676Z,9.63
2023-01-04T08:29:49.299Z,10.30
2023-01-04T08:32:20.475Z,12.40
2023-01-04T08:34:51.882Z,13.15
2023-01-04T08:37:23.041Z,9.52
2023-01-04T08:39:55.458Z,14.82
2023-01-04T08:42:31.254Z,11.20
2023-01-04T08:45:03.614Z,13.45
2023-01-04T08:47:35.665Z,14.70
2023-01-04T08:50:10.688Z,14.52
2023-01-04T08:52:43.525Z,15.25
2023-01-04T08:55:17.761Z,13.93
2023-01-04T08:57:51.263Z,13.02
2023-01-04T09:00:23.289Z,11.73
2023-01-04T09:02:55.061Z,11.88
2023-01-04T09:05:27.457Z,11.48
2023-01-04T09:07:58.837Z,15.88
2023-01-04T09:10:29.995Z,9.52
2023-01-04T09:13:01.140Z,10.85
2023-01-04T09:15:33.099Z,12.63
2023-01-04T09:18:31.951Z,12.27
2023-01-04T09:20:55.588Z,12.98
2023-01-04T09:23:27.059Z,13.48
2023-01-04T09:25:58.160Z,8.73
2023-01-04T09:28:29.631Z,11.25
2023-01-04T09:31:00.738Z,10.35
2023-01-04T09:33:55.745Z,11.93
2023-01-04T09:36:23.167Z,10.57
2023-01-04T09:38:54.583Z,11.63
2023-01-04T09:41:31.644Z,11.90
2023-01-04T09:44:12.886Z,12.60
2023-01-04T09:47:10.592Z,11.70
2023-01-04T09:49:53.849Z,12.50
2023-01-04T09:52:50.467Z,12.40
2023-01-04T09:55:51.776Z,14.05
2023-01-04T09:58:37.880Z,10.27
2023-01-04T10:01:49.913Z,11.85
2023-01-04T10:07:04.893Z,15.40
2023-01-04T10:09:36.477Z,14.77
2023-01-04T10:12:44.048Z,13.23
2023-01-04T10:15:32.445Z,14.85
2023-01-04T10:21:32.010Z,17.98
2023-01-04T10:24:10.169Z,18.73
2023-01-04T10:26:52.789Z,16.70
2023-01-04T10:29:44.968Z,16.45
2023-01-04T10:32:31.980Z,21.88
2023-01-04T10:35:03.079Z,19.23
2023-01-04T10:37:39.298Z,20.23
2023-01-04T10:40:16.626Z,22.52
2023-01-04T10:43:14.057Z,20.23
2023-01-04T10:46:00.466Z,19.70
2023-01-04T10:48:51.489Z,17.08
2023-01-04T10:51:37.043Z,18.27
2023-01-04T10:54:23.223Z,19.30
2023-01-04T10:57:02.369Z,18.35
2023-01-04T10:59:36.662Z,17.08
2023-01-04T11:02:29.169Z,19.33
2023-01-04T11:05:22.332Z,16.70
2023-01-04T11:08:01.073Z,14.45
2023-01-04T11:10:43.004Z,14.00
2023-01-04T11:13:14.489Z,12.00
2023-01-04T11:15:46.867Z,14.15
2023-01-04T11:18:19.072Z,14.70
2023-01-04T11:20:50.215Z,12.70
2023-01-04T11:23:23.068Z,14.52
2023-01-04T11:26:00.465Z,14.25
2023-01-04T11:28:49.900Z,10.60
2023-01-04T11:32:14.364Z,12.75
2023-01-04T11:34:50.244Z,11.25
2023-01-04T11:37:29.814Z,13.10
2023-01-04T11:40:18.805Z,9.77
2023-01-04T11:43:13.076Z,11.77
2023-01-04T11:46:07.891Z,10.80
2023-01-04T11:48:46.057Z,7.68
2023-01-04T11:51:31.893Z,10.65
2023-01-04T11:54:04.137Z,10.93
2023-01-04T11:56:37.662Z,13.05
2023-01-04T11:59:11.581Z,9.65
2023-01-04T12:01:51.089Z,13.68
2023-01-04T12:04:29.091Z,12.68
2023-01-04T12:07:35.947Z,11.65
2023-01-04T12:10:25.216Z,11.57
2023-01-04T12:13:01.884Z,12.43
2023-01-04T12:16:07.853Z,11.38
2023-01-04T12:18:46.739Z,14.48
2023-01-04T12:21:24.206Z,10.70
2023-01-04T12:23:56.525Z,9.98
2023-01-04T12:26:27.896Z,11.45
2023-01-04T12:29:24.538Z,8.57
2023-01-04T12:32:09.099Z,12.75
2023-01-04T12:34:42.630Z,14.40
2023-01-04T12:37:34.560Z,13.35
2023-01-04T12:40:26.116Z,15.20
2023-01-04T12:43:18.405Z,14.88
2023-01-04T12:46:10.108Z,16.73
2023-01-04T12:49:00.635Z,15.90
2023-01-04T12:51:33.177Z,18.52
2023-01-04T12:54:07.240Z,14.48
2023-01-04T12:57:15.028Z,17.23
2023-01-04T13:00:07.984Z,13.63
2023-01-04T13:02:49.420Z,20.25
2023-01-04T13:05:55.549Z,17.42
2023-01-04T13:08:16.579Z,19.33
2023-01-04T13:10:53.075Z,17.25
2023-01-04T13:13:47.007Z,14.30
2023-01-04T13:16:47.134Z,12.48
2023-01-04T13:19:27.937Z,13.43
2023-01-04T13:21:59.112Z,20.70
2023-01-04T13:24:33.686Z,14.10
2023-01-04T13:27:09.744Z,11.00
2023-01-04T13:29:43.213Z,14.18
2023-01-04T13:32:19.467Z,13.90
2023-01-04T13:35:15.289Z,11.82
2023-01-04T13:37:48.602Z,12.82
2023-01-04T13:40:39.932Z,12.75
2023-01-04T13:43:37.841Z,15.10
2023-01-04T13:46:38.070Z,13.18
2023-01-04T13:49:19.149Z,11.65
2023-01-04T13:52:06.362Z,11.50
2023-01-04T13:54:44.131Z,9.40
2023-01-04T13:57:22.016Z,10.65
2023-01-04T13:59:53.540Z,10.90
2023-01-04T14:04:55.846Z,14.32
2023-01-04T14:07:27.329Z,12.32
2023-01-04T14:10:00.883Z,11.27
2023-01-04T14:12:32.885Z,11.48
2023-01-04T14:15:15.680Z,11.10
2023-01-04T14:17:53.609Z,6.15
2023-01-04T14:20:24.799Z,8.45
2023-01-04T14:23:00.107Z,9.25
2023-01-04T14:25:45.090Z,9.23
2023-01-04T14:28:33.860Z,8.55
2023-01-04T14:31:08.302Z,8.70
2023-01-04T14:33:50.085Z,6.55
2023-01-04T14:36:31.484Z,9.43
2023-01-04T14:39:09.032Z,7.70
2023-01-04T14:41:43.400Z,8.85
2023-01-04T14:44:23.138Z,6.72
2023-01-04T14:46:59.651Z,6.97
2023-01-04T14:49:32.972Z,10.27
2023-01-04T14:52:05.810Z,6.85
2023-01-04T14:54:40.459Z,7.90
2023-01-04T14:57:12.755Z,5.47
2023-01-04T14:59:46.436Z,7.15
2023-01-04T15:02:17.893Z,6.38
2023-01-04T15:04:49.389Z,4.78
2023-01-04T15:07:50.100Z,5.88
2023-01-04T15:10:31.581Z,5.57
2023-01-04T15:13:02.781Z,6.18
2023-01-04T15:15:37.546Z,6.88
2023-01-04T15:18:09.157Z,7.28
2023-01-04T15:20:43.590Z,8.20
2023-01-04T15:23:15.709Z,9.35
2023-01-04T15:25:47.082Z,7.85
2023-01-04T15:28:18.104Z,7.35
2023-01-04T15:30:49.055Z,7.05
2023-01-04T15:33:20.454Z,7.25
2023-01-04T15:36:03.716Z,7.78
2023-01-04T15:38:35.423Z,8.60
2023-01-04T15:41:08.302Z,7.88
2023-01-04T15:43:40.259Z,6.80
2023-01-04T15:46:11.512Z,7.93
2023-01-04T15:48:42.778Z,9.52
2023-01-04T15:53:45.239Z,8.32
2023-01-04T15:56:16.590Z,5.53
2023-01-04T15:58:47.593Z,8.27
2023-01-04T16:01:19.019Z,7.03
2023-01-04T16:06:26.476Z,8.65
2023-01-04T16:09:00.253Z,6.22
2023-01-04T16:11:31.894Z,11.23
2023-01-04T16:14:04.547Z,8.00
2023-01-04T16:16:36.083Z,10.18
2023-01-04T16:19:08.437Z,9.10
2023-01-04T16:21:39.297Z,7.93
2023-01-04T16:24:37.000Z,8.48
2023-01-04T16:27:03.609Z,8.60
2023-01-04T16:29:34.899Z,6.85
2023-01-04T16:32:06.478Z,9.43
2023-01-04T16:34:38.476Z,10.30
2023-01-04T16:42:31.547Z,9.35
2023-01-04T16:45:02.703Z,10.65
2023-01-04T16:47:42.464Z,7.10
2023-01-04T16:50:14.289Z,8.95
2023-01-04T16:52:46.165Z,11.07
2023-01-04T16:55:23.585Z,11.27
2023-01-04T16:57:55.003Z,9.02
2023-01-04T17:00:26.076Z,8.65
2023-01-04T17:02:57.514Z,9.23
2023-01-04T17:05:28.684Z,7.28
2023-01-04T17:07:59.809Z,8.95
2023-01-04T17:10:31.138Z,6.95
2023-01-04T17:13:03.037Z,8.35
2023-01-04T17:15:49.166Z,9.02
2023-01-04T17:18:23.928Z,8.65
2023-01-04T17:21:06.247Z,6.70
2023-01-04T17:23:50.197Z,8.35
2023-01-04T17:26:27.741Z,7.28
2023-01-04T17:29:00.536Z,7.47
2023-01-04T17:31:34.365Z,8.68
2023-01-04T17:34:06.058Z,6.82
2023-01-04T17:36:37.381Z,7.05
2023-01-04T17:39:08.796Z,6.03
2023-01-04T17:41:40.151Z,6.95
2023-01-04T17:44:12.431Z,6.32
2023-01-04T17:46:44.664Z,9.65
2023-01-04T17:51:55.953Z,7.20
2023-01-04T17:54:28.337Z,9.65
2023-01-04T17:59:29.987Z,6.72
2023-01-04T18:02:01.547Z,7.95
2023-01-04T18:04:32.815Z,6.82
2023-01-04T18:07:04.190Z,5.32
2023-01-04T18:09:35.637Z,4.93
2023-01-04T18:12:06.865Z,5.75
2023-01-04T18:14:38.122Z,11.45
2023-01-04T18:17:09.139Z,8.68
2023-01-04T18:19:44.545Z,6.82
2023-01-04T18:22:17.538Z,6.65
2023-01-04T18:24:48.493Z,7.32
2023-01-04T18:27:22.623Z,7.47
2023-01-04T18:29:56.873Z,8.45
2023-01-04T18:32:28.959Z,10.73
2023-01-04T18:35:05.782Z,7.38
2023-01-04T18:37:39.945Z,6.90
2023-01-04T18:40:11.699Z,7.35
2023-01-04T18:45:13.554Z,9.52
2023-01-04T18:47:48.984Z,6.00
2023-01-04T18:50:20.590Z,8.68
2023-01-04T18:52:51.964Z,8.00
2023-01-04T18:55:23.528Z,9.32
2023-01-04T18:57:54.825Z,6.03
2023-01-04T19:00:31.179Z,7.28
2023-01-04T19:03:02.768Z,5.90
2023-01-04T19:05:34.421Z,4.93
2023-01-04T19:08:06.056Z,6.13
2023-01-04T19:10:37.250Z,6.30
2023-01-04T19:13:08.118Z,6.82
2023-01-04T19:15:42.769Z,5.80
2023-01-04T19:18:18.551Z,7.25
2023-01-04T19:20:49.522Z,6.47
2023-01-04T19:23:20.845Z,8.23
2023-01-04T19:25:52.029Z,9.90
2023-01-04T19:28:23.224Z,8.57
2023-01-04T19:30:54.225Z,9.60
2023-01-04T19:33:26.260Z,8.63
2023-01-04T19:35:57.688Z,5.15
2023-01-04T19:38:28.825Z,5.40
2023-01-04T19:41:01.817Z,4.78
2023-01-04T19:43:33.052Z,4.05
2023-01-04T19:46:06.408Z,5.88
2023-01-04T19:48:37.605Z,5.53
2023-01-04T19:51:18.522Z,5.22
2023-01-04T19:53:49.908Z,7.45
2023-01-04T19:58:52.919Z,6.50
2023-01-04T20:03:54.761Z,9.07
2023-01-04T20:06:26.173Z,5.88
2023-01-04T20:08:57.387Z,8.98
2023-01-04T20:11:28.805Z,7.22
2023-01-04T20:14:00.048Z,5.80
2023-01-04T20:16:31.479Z,6.40
2023-01-04T20:19:02.685Z,7.05
2023-01-04T20:21:33.798Z,8.48
2023-01-04T20:24:05.208Z,7.53
2023-01-04T20:26:36.389Z,7.97
2023-01-04T20:29:08.078Z,7.65
2023-01-04T20:31:45.272Z,7.07
2023-01-04T20:34:16.892Z,5.15
2023-01-04T20:36:48.268Z,6.88
2023-01-04T20:39:19.475Z,8.40
2023-01-04T20:42:08.795Z,6.78
2023-01-04T20:44:40.135Z,7.65
2023-01-04T20:47:11.179Z,7.05
2023-01-04T20:49:42.055Z,7.72
2023-01-04T20:52:13.033Z,8.37
2023-01-04T20:54:44.820Z,8.45
2023-01-04T20:57:17.154Z,7.53
2023-01-04T20:59:48.517Z,5.75
2023-01-04T21:02:19.715Z,7.53
2023-01-04T21:04:50.799Z,7.75
2023-01-04T21:07:22.002Z,6.90
2023-01-04T21:09:52.923Z,8.45
2023-01-04T21:12:24.349Z,8.93
2023-01-04T21:14:55.524Z,7.38
2023-01-04T21:17:26.394Z,8.68
2023-01-04T21:19:57.294Z,9.35
2023-01-04T21:22:28.645Z,5.88
2023-01-04T21:24:59.789Z,7.13
2023-01-04T21:27:32.995Z,5.80
2023-01-04T21:30:04.738Z,5.97
2023-01-04T21:35:06.912Z,4.65
2023-01-04T21:37:37.865Z,4.68
2023-01-04T21:40:09.405Z,5.30
2023-01-04T21:42:42.096Z,5.43
2023-01-04T21:45:13.633Z,5.53
2023-01-04T21:50:17.151Z,9.57
2023-01-04T21:52:49.222Z,8.80
2023-01-04T21:55:20.279Z,5.72
2023-01-04T21:57:52.163Z,5.85
2023-01-04T22:00:23.903Z,7.43
2023-01-04T22:02:55.432Z,8.02
2023-01-04T22:05:26.991Z,4.43
2023-01-04T22:07:58.142Z,8.27
2023-01-04T22:10:29.096Z,6.57
2023-01-04T22:13:00.403Z,7.35
2023-01-04T22:15:31.520Z,7.65
2023-01-04T22:18:02.880Z,6.25
2023-01-04T22:20:34.188Z,5.45
2023-01-04T22:23:05.628Z,5.50
2023-01-04T22:25:37.146Z,4.43
2023-01-04T22:28:08.469Z,5.05
2023-01-04T22:30:43.547Z,4.32
2023-01-04T22:33:14.913Z,5.85
2023-01-04T22:35:45.861Z,4.40
2023-01-04T22:38:17.018Z,4.97
2023-01-04T22:40:48.278Z,5.03
2023-01-04T22:43:19.688Z,5.00
2023-01-04T22:45:50.818Z,3.75
2023-01-04T22:48:21.791Z,4.22
2023-01-04T22:50:52.622Z,4.72
2023-01-04T22:53:23.746Z,3.85
2023-01-04T22:58:52.043Z,6.53
2023-01-04T23:01:26.292Z,5.78
2023-01-04T23:03:58.680Z,3.45
2023-01-04T23:06:31.758Z,4.63
2023-01-04T23:09:09.343Z,4.35
2023-01-04T23:11:40.924Z,3.30
2023-01-04T23:14:15.307Z,4.28
2023-01-04T23:16:49.734Z,4.07
2023-01-04T23:19:20.864Z,4.85
2023-01-04T23:21:52.618Z,5.70
2023-01-04T23:24:23.735Z,5.97
2023-01-04T23:26:54.839Z,4.72
2023-01-04T23:29:29.352Z,3.63
2023-01-04T23:32:00.966Z,5.63
2023-01-04T23:34:32.328Z,4.30
2023-01-04T23:37:03.547Z,3.90
2023-01-04T23:39:35.032Z,5.55
2023-01-04T23:42:06.440Z,5.80
2023-01-04T23:44:37.543Z,5.28
2023-01-04T23:47:09.745Z,7.38
2023-01-04T23:49:41.813Z,3.88
2023-01-04T23:52:13.741Z,4.00
2023-01-04T23:54:44.679Z,4.57
2023-01-04T23:57:15.597Z,5.75
2023-01-04T23:59:47.179Z,4.43
